Etusivu
METAR-TAF:

METAR-TAF

Lentoasemat :

Fairbanks, Alaska, Yhdysvallat

Leveyspiiri: 64-48-14N, Pituuspiiri: 147-52-34W, korkeus merenpinnasta: 132 m

Tämänhetkinen sää

Tämä raportti tehtiin 30 minuuttia sitten, kello 18.53 UTC
tyyntä
Lämpötila 21°C
Kosteus 60%
Ilmanpaine 1025 hPa
Näkyvyys: 16.1 km
Muutamia pilviä 7000 ft:n korkeudessa
Hajanaisia pilviä 10000 ft:n korkeudessa
Hajonneita pilviä 20000 ft:n korkeudessa

METAR: PAFA 211853Z 00000KT 10SM FEW070 SCT100 BKN200 21/13 A3028 RMK AO2 SLP258 T02060128

Aika: 11:23 (19:23 UTC)

Sääennuste

Tämä raportti tehtiin 2 tuntia ja 3 minuuttia sitten, kello 17.20 UTC
Ennuste voimassa 21. päivästä klo 18 UTC - 22. päivään klo 24 UTC
Tuuli kn pohjoisesta
Näkyvyys: 10 km
Muutamia pilviä 7000 ft:n korkeudessa
Hajanaisia pilviä 10000 ft:n korkeudessa
Hajonneita pilviä 20000 ft:n korkeudessa

TAF: PAFA 211720Z 2118/2224 00000KT P6SM FEW070 SCT100 BKN200

Säähavainnot ja -ennusteet yli 4000 lentoasemalta (METAR- ja TAF-raportit).

Käytössä olevat sääasemat on merkitty karttaan keltaisilla ja punaisilla pisteillä.

Aseta hiiri pisteen päälle nähdäksesi sääaseman nimen.

Klikkaa sitten nähdäksesi säähavainnot ja -ennusteet.

Kartan vaihtaminen: klikkaa mustalla rastilla varustettuja vihreitä pisteitä, niin voit zoomata sisään; viivalla varustettua vihreää pistettä, niin voit zoomata ulos tai vihreitä nuolia, niin pääset viereisille kartoille.


METAR-TAF: